Time;durP1;ratioP1;P1;durP2;ratioP2;P2;SDS_P1;SDS_P2;PMS_P1;PMS_P2;Temp;Humidity;BMP_temperature;BMP_pressure;BME280_temperature;BME280_humidity;BME280_pressure;Samples;Min_cycle;Max_cycle;Signal;HPM_P1;HPM_P2
2023/11/12 00:00:17;;;;;;;10.00;4.13;;;5.20;99.90;;;;;;5064192;28;20037;-88
2023/11/12 00:02:44;;;;;;;10.20;4.28;;;5.20;99.90;;;;;;5121929;28;20041;-88
2023/11/12 00:05:13;;;;;;;10.13;4.43;;;5.20;99.90;;;;;;5071530;28;20057;-89
2023/11/12 00:07:40;;;;;;;13.45;4.43;;;5.40;99.90;;;;;;5071522;28;20045;-88
2023/11/12 00:10:11;;;;;;;12.27;5.30;;;5.20;99.90;;;;;;5072028;28;20029;-88
2023/11/12 00:12:39;;;;;;;8.43;4.63;;;5.10;99.90;;;;;;5063715;28;20041;-88
2023/11/12 00:15:07;;;;;;;9.55;5.10;;;5.10;99.90;;;;;;5070054;28;20110;-88
2023/11/12 00:17:33;;;;;;;9.88;5.20;;;5.20;99.90;;;;;;5063665;28;20042;-88
2023/11/12 00:20:04;;;;;;;15.73;5.82;;;5.20;99.90;;;;;;5064181;28;20049;-88
2023/11/12 00:22:32;;;;;;;13.80;5.97;;;5.80;99.90;;;;;;5069674;28;20041;-88
2023/11/12 00:24:58;;;;;;;15.57;5.63;;;5.70;99.90;;;;;;5071109;28;20044;-88
2023/11/12 00:27:27;;;;;;;15.15;6.28;;;5.80;99.90;;;;;;5071339;28;20481;-88
2023/11/12 00:29:53;;;;;;;11.95;5.63;;;5.10;99.90;;;;;;5071715;28;20124;-88
2023/11/12 00:32:21;;;;;;;13.00;6.07;;;5.10;99.90;;;;;;5062644;28;20187;-88
2023/11/12 00:34:48;;;;;;;12.00;6.63;;;5.50;99.90;;;;;;5057122;28;20045;-87
2023/11/12 00:37:15;;;;;;;13.57;7.18;;;5.00;99.90;;;;;;5067933;28;20041;-88
2023/11/12 00:39:41;;;;;;;13.18;6.80;;;5.80;99.90;;;;;;5099525;28;20046;-87
2023/11/12 00:42:08;;;;;;;15.75;6.70;;;5.00;99.90;;;;;;5071052;28;20458;-88
2023/11/12 00:44:35;;;;;;;15.68;8.05;;;5.30;99.90;;;;;;5071138;28;20497;-88
2023/11/12 00:47:02;;;;;;;16.58;8.15;;;5.00;99.90;;;;;;5071409;28;20095;-88
2023/11/12 00:49:28;;;;;;;15.20;8.32;;;5.00;99.90;;;;;;5055690;28;20049;-88
2023/11/12 00:51:55;;;;;;;21.02;9.27;;;5.00;99.90;;;;;;5060667;28;20099;-88
2023/11/12 00:54:22;;;;;;;19.38;8.25;;;5.00;99.90;;;;;;5054178;28;20033;-88
2023/11/12 00:56:48;;;;;;;21.52;8.50;;;4.90;99.90;;;;;;5067418;28;20041;-89
2023/11/12 00:59:15;;;;;;;24.67;8.35;;;5.50;99.90;;;;;;5097520;28;20124;-88
2023/11/12 01:01:42;;;;;;;32.40;8.65;;;5.70;99.90;;;;;;5078286;28;20041;-88
2023/11/12 01:04:11;;;;;;;49.22;10.10;;;5.40;99.90;;;;;;5070976;28;20792;-88
2023/11/12 01:06:38;;;;;;;22.00;8.80;;;5.00;99.90;;;;;;5109745;28;20077;-88
2023/11/12 01:09:04;;;;;;;41.03;9.95;;;5.00;99.90;;;;;;5082204;28;20045;-88
2023/11/12 01:11:31;;;;;;;41.35;9.30;;;5.00;99.90;;;;;;5070519;28;20048;-88
2023/11/12 01:13:58;;;;;;;77.88;10.45;;;5.00;99.90;;;;;;5057401;28;20052;-88
2023/11/12 01:16:25;;;;;;;71.07;10.00;;;5.00;99.90;;;;;;5091018;28;20037;-88
2023/11/12 01:18:52;;;;;;;53.38;9.77;;;5.10;99.90;;;;;;5095359;28;20120;-88
2023/11/12 01:21:19;;;;;;;79.20;11.05;;;5.10;99.90;;;;;;5120545;28;20522;-87
2023/11/12 01:23:45;;;;;;;56.00;9.82;;;5.00;99.90;;;;;;5105393;28;20509;-88
2023/11/12 01:26:12;;;;;;;77.75;10.63;;;5.10;99.90;;;;;;5089225;28;20044;-88
2023/11/12 01:28:39;;;;;;;44.22;10.30;;;5.10;99.90;;;;;;5054478;28;20064;-88
2023/11/12 01:31:07;;;;;;;67.55;10.48;;;5.10;99.90;;;;;;5072887;28;20044;-88
2023/11/12 01:33:34;;;;;;;89.55;12.57;;;5.00;99.90;;;;;;5074637;28;20040;-87
2023/11/12 01:36:01;;;;;;;100.63;12.15;;;5.00;99.90;;;;;;5074436;28;20119;-88
2023/11/12 01:38:30;;;;;;;80.65;11.60;;;5.10;99.90;;;;;;5107634;28;20099;-88
2023/11/12 01:41:02;;;;;;;65.78;9.45;;;5.70;99.90;;;;;;5107527;28;20094;-88
2023/11/12 01:43:30;;;;;;;64.72;11.73;;;5.60;99.90;;;;;;5061424;28;20505;-88
2023/11/12 01:45:59;;;;;;;96.97;11.65;;;5.10;99.90;;;;;;5107812;28;20065;-88
2023/11/12 01:48:26;;;;;;;110.03;12.68;;;5.10;99.90;;;;;;5123987;28;20033;-88
2023/11/12 01:50:53;;;;;;;78.03;10.30;;;5.90;99.90;;;;;;5107149;28;20049;-88
2023/11/12 01:53:20;;;;;;;53.47;10.55;;;5.80;99.90;;;;;;5107211;28;20067;-87
2023/11/12 01:55:47;;;;;;;70.53;11.57;;;5.10;99.90;;;;;;5096219;28;20410;-88
2023/11/12 01:58:16;;;;;;;51.25;10.75;;;6.10;99.90;;;;;;5073859;28;20037;-88
2023/11/12 02:00:44;;;;;;;67.50;9.95;;;6.00;99.90;;;;;;5107445;28;20047;-88
2023/11/12 02:03:15;;;;;;;60.70;11.25;;;5.20;99.90;;;;;;5074413;28;20048;-88
2023/11/12 02:05:42;;;;;;;43.15;10.60;;;5.20;99.90;;;;;;5072537;28;20164;-88
2023/11/12 02:08:09;;;;;;;34.05;9.98;;;5.10;99.90;;;;;;5053914;28;20125;-88
2023/11/12 02:10:36;;;;;;;38.97;11.10;;;5.50;99.90;;;;;;5089671;28;20172;-88
2023/11/12 02:13:04;;;;;;;44.47;10.77;;;5.20;99.90;;;;;;5098264;28;20087;-88
2023/11/12 02:15:31;;;;;;;51.00;11.00;;;5.20;99.90;;;;;;5085605;28;20049;-88
2023/11/12 02:17:58;;;;;;;42.08;11.15;;;5.20;99.90;;;;;;5101633;28;20041;-88
2023/11/12 02:20:26;;;;;;;43.53;11.73;;;5.20;99.90;;;;;;5107775;28;20033;-88
2023/11/12 02:22:54;;;;;;;38.03;12.13;;;5.20;99.90;;;;;;5106452;28;20037;-88
2023/11/12 02:25:21;;;;;;;32.50;10.52;;;5.20;99.90;;;;;;5106687;28;20041;-88
2023/11/12 02:27:48;;;;;;;42.30;11.45;;;5.50;99.90;;;;;;5107173;28;20051;-87
2023/11/12 02:30:18;;;;;;;33.58;12.52;;;5.80;99.90;;;;;;5057478;28;20056;-87
2023/11/12 02:32:45;;;;;;;40.58;11.57;;;5.20;99.90;;;;;;5106806;28;20060;-88
2023/11/12 02:35:12;;;;;;;23.63;11.30;;;5.80;99.90;;;;;;5106757;28;20090;-88
2023/11/12 02:37:39;;;;;;;25.77;12.10;;;5.20;99.90;;;;;;5106511;28;20044;-88
2023/11/12 02:40:07;;;;;;;23.17;12.15;;;5.20;99.90;;;;;;5073237;28;20033;-88
2023/11/12 02:42:34;;;;;;;20.25;12.23;;;5.20;99.90;;;;;;5123970;28;20087;-88
2023/11/12 02:45:00;;;;;;;26.65;11.88;;;5.20;99.90;;;;;;5106865;28;20099;-88
2023/11/12 02:47:27;;;;;;;26.75;12.48;;;5.20;99.90;;;;;;5106516;28;20036;-88
2023/11/12 02:50:15;;;;;;;22.67;12.05;;;5.20;99.90;;;;;;5073390;28;20553;-87
2023/11/12 02:52:47;;;;;;;26.48;12.05;;;5.10;99.90;;;;;;5073233;28;20113;-88
2023/11/12 02:55:16;;;;;;;24.88;11.93;;;5.10;99.90;;;;;;5113725;28;20073;-88
2023/11/12 02:57:49;;;;;;;22.67;11.80;;;5.10;99.90;;;;;;5093060;28;20036;-88
2023/11/12 03:00:18;;;;;;;21.33;11.80;;;5.00;99.90;;;;;;5106349;28;20123;-88
2023/11/12 03:02:48;;;;;;;18.95;11.18;;;5.00;99.90;;;;;;5099910;28;20120;-88
2023/11/12 03:05:14;;;;;;;20.45;11.30;;;5.00;99.90;;;;;;5099616;28;20063;-88
2023/11/12 03:07:41;;;;;;;16.75;10.23;;;5.50;99.90;;;;;;5105924;28;20045;-88
2023/11/12 03:10:09;;;;;;;20.45;11.13;;;5.20;99.90;;;;;;5105825;28;20041;-88
2023/11/12 03:12:38;;;;;;;19.35;11.07;;;4.80;99.90;;;;;;5094080;28;20093;-88
2023/11/12 03:15:09;;;;;;;18.35;10.70;;;4.80;99.90;;;;;;5106077;28;20036;-87
2023/11/12 03:17:36;;;;;;;18.42;10.18;;;4.70;99.90;;;;;;5070040;28;20041;-88
2023/11/12 03:20:04;;;;;;;18.35;11.48;;;4.70;99.90;;;;;;5105906;28;20040;-88
2023/11/12 03:22:33;;;;;;;22.77;10.88;;;4.70;99.90;;;;;;5092127;28;20357;-88
2023/11/12 03:25:08;;;;;;;18.30;10.23;;;4.70;99.90;;;;;;5105700;28;20044;-87
2023/11/12 03:27:35;;;;;;;22.97;10.57;;;4.60;99.90;;;;;;5119075;28;20124;-88
2023/11/12 03:30:02;;;;;;;20.40;10.77;;;4.80;99.90;;;;;;5069204;28;20071;-88
2023/11/12 03:32:29;;;;;;;20.67;10.68;;;4.50;99.90;;;;;;5072448;28;20103;-87
2023/11/12 03:34:55;;;;;;;18.58;10.88;;;5.20;99.90;;;;;;5105366;28;20037;-88
2023/11/12 03:37:22;;;;;;;17.58;10.27;;;4.40;99.90;;;;;;5105524;28;20060;-88
2023/11/12 03:39:50;;;;;;;16.52;10.18;;;4.40;99.90;;;;;;5089238;28;20053;-88
2023/11/12 03:42:17;;;;;;;17.02;9.80;;;4.40;99.90;;;;;;5105599;28;20041;-88
2023/11/12 03:44:46;;;;;;;17.60;10.30;;;4.40;99.90;;;;;;5072126;28;20040;-88
2023/11/12 03:47:12;;;;;;;19.65;10.50;;;4.90;99.90;;;;;;5104854;28;20067;-88
2023/11/12 03:49:40;;;;;;;19.25;10.25;;;4.30;99.90;;;;;;5067885;28;20034;-88
2023/11/12 03:52:07;;;;;;;19.20;11.27;;;4.30;99.90;;;;;;5096422;28;20041;-88
2023/11/12 03:54:36;;;;;;;18.48;10.70;;;4.70;99.90;;;;;;5105067;28;20068;-88
2023/11/12 03:57:03;;;;;;;20.50;11.10;;;4.30;99.90;;;;;;5105651;28;20195;-88
2023/11/12 03:59:30;;;;;;;18.73;10.32;;;4.30;99.90;;;;;;5091805;28;20044;-87
2023/11/12 04:01:57;;;;;;;17.40;10.02;;;4.30;99.90;;;;;;5122103;28;20041;-88
2023/11/12 04:04:24;;;;;;;18.80;11.13;;;4.80;99.90;;;;;;5085042;28;20046;-87
2023/11/12 04:06:50;;;;;;;18.55;11.18;;;4.20;99.90;;;;;;5064650;28;20095;-88
2023/11/12 04:09:17;;;;;;;17.25;10.07;;;5.20;99.90;;;;;;5104997;28;20037;-88
2023/11/12 04:11:44;;;;;;;20.02;11.02;;;4.20;99.90;;;;;;5091128;28;20047;-88
2023/11/12 04:14:10;;;;;;;20.15;10.23;;;4.10;99.90;;;;;;5092521;28;20393;-88
2023/11/12 04:16:39;;;;;;;19.45;10.93;;;4.80;99.90;;;;;;5090669;28;20108;-88
2023/11/12 04:19:07;;;;;;;21.35;10.70;;;5.00;99.90;;;;;;5084280;28;20152;-88
2023/11/12 04:21:35;;;;;;;17.77;11.00;;;4.10;99.90;;;;;;5104872;28;20071;-88
2023/11/12 04:24:01;;;;;;;16.30;9.85;;;4.20;99.90;;;;;;5104392;28;20067;-88
2023/11/12 04:26:29;;;;;;;18.52;9.93;;;4.10;99.90;;;;;;5071260;28;20854;-88
2023/11/12 04:28:56;;;;;;;17.40;10.13;;;4.00;99.90;;;;;;5058072;28;20151;-88
2023/11/12 04:31:22;;;;;;;15.25;10.68;;;4.00;99.90;;;;;;5062933;28;20142;-88
2023/11/12 04:33:49;;;;;;;16.85;10.43;;;3.90;99.90;;;;;;5090732;28;20044;-88
2023/11/12 04:36:18;;;;;;;17.60;10.48;;;4.10;99.90;;;;;;5104816;28;20041;-88
2023/11/12 04:38:45;;;;;;;15.23;9.90;;;5.00;99.90;;;;;;5074832;28;20171;-88
2023/11/12 04:41:11;;;;;;;18.25;10.20;;;3.90;99.90;;;;;;5121129;28;20110;-88
2023/11/12 04:43:40;;;;;;;16.38;10.55;;;3.90;99.90;;;;;;5071175;28;20048;-88
2023/11/12 04:46:06;;;;;;;15.77;9.98;;;3.90;99.90;;;;;;5104336;28;20127;-88
2023/11/12 04:48:33;;;;;;;20.50;10.35;;;4.30;99.90;;;;;;5070705;28;20127;-88
2023/11/12 04:51:00;;;;;;;17.48;10.45;;;3.20;99.90;;;;;;5090745;28;20033;-88
2023/11/12 04:53:27;;;;;;;16.13;9.43;;;4.50;99.90;;;;;;5087526;28;20425;-87
2023/11/12 04:55:53;;;;;;;21.27;9.95;;;4.10;99.90;;;;;;5066898;28;20042;-88
2023/11/12 04:58:20;;;;;;;17.88;9.63;;;4.60;99.90;;;;;;5051072;28;20498;-88
2023/11/12 05:00:47;;;;;;;19.85;10.15;;;3.70;99.90;;;;;;5087675;28;20121;-88
2023/11/12 05:03:14;;;;;;;21.10;10.43;;;3.60;99.90;;;;;;5111899;28;20127;-88
2023/11/12 05:05:41;;;;;;;16.35;9.93;;;4.50;99.90;;;;;;5074804;28;20515;-87
2023/11/12 05:08:07;;;;;;;15.95;9.98;;;4.50;99.90;;;;;;5074814;28;20041;-88
2023/11/12 05:10:34;;;;;;;18.80;10.40;;;3.60;99.90;;;;;;5075549;28;20034;-88
2023/11/12 05:13:01;;;;;;;16.55;10.32;;;4.80;99.90;;;;;;5067880;28;20045;-88
2023/11/12 05:15:28;;;;;;;18.00;10.40;;;3.90;99.90;;;;;;5088332;28;20606;-88
2023/11/12 05:17:54;;;;;;;16.10;10.50;;;3.60;99.90;;;;;;5116510;28;20095;-88
2023/11/12 05:20:21;;;;;;;15.27;9.93;;;4.10;99.90;;;;;;5096906;28;20040;-88
2023/11/12 05:22:48;;;;;;;17.88;9.93;;;4.20;99.90;;;;;;5065864;28;20045;-88
2023/11/12 05:25:15;;;;;;;19.67;9.75;;;3.50;99.90;;;;;;5103302;28;20127;-88
2023/11/12 05:27:42;;;;;;;16.88;10.77;;;3.60;99.90;;;;;;5097001;28;20611;-88
2023/11/12 05:30:09;;;;;;;19.25;9.95;;;3.60;99.90;;;;;;5103278;28;20044;-89
2023/11/12 05:32:36;;;;;;;14.90;10.07;;;3.60;99.90;;;;;;5080632;28;20041;-88
2023/11/12 05:35:03;;;;;;;16.55;9.88;;;3.60;99.90;;;;;;5094671;28;20040;-88
2023/11/12 05:37:30;;;;;;;18.92;10.55;;;3.60;99.90;;;;;;5074312;28;20182;-88
2023/11/12 05:39:56;;;;;;;17.08;10.30;;;3.60;99.90;;;;;;5111300;28;20073;-88
2023/11/12 05:42:23;;;;;;;18.15;10.68;;;3.70;99.90;;;;;;5066785;28;20041;-88
2023/11/12 05:44:50;;;;;;;19.80;10.60;;;3.70;99.90;;;;;;5102573;28;20045;-88
2023/11/12 05:47:16;;;;;;;16.65;10.75;;;3.70;99.90;;;;;;5106989;28;20543;-88
2023/11/12 05:49:43;;;;;;;18.98;11.00;;;3.70;99.90;;;;;;5107722;28;20037;-88
2023/11/12 05:52:10;;;;;;;17.58;10.63;;;4.70;99.90;;;;;;5124868;28;20080;-88
2023/11/12 05:54:36;;;;;;;18.52;11.10;;;3.70;99.90;;;;;;5107833;28;20064;-88
2023/11/12 05:57:06;;;;;;;16.00;9.98;;;3.70;99.90;;;;;;5104486;28;20045;-88
2023/11/12 05:59:33;;;;;;;20.10;10.98;;;3.70;99.90;;;;;;5103776;28;20830;-88
2023/11/12 06:02:00;;;;;;;19.25;10.23;;;3.70;99.90;;;;;;5107194;28;20194;-88
2023/11/12 06:04:26;;;;;;;16.83;10.63;;;4.50;99.90;;;;;;5073837;28;20497;-88
2023/11/12 06:06:53;;;;;;;19.42;9.98;;;3.70;99.90;;;;;;5107440;28;20037;-88
2023/11/12 06:09:20;;;;;;;15.48;10.27;;;3.60;99.90;;;;;;5056528;28;20552;-88
2023/11/12 06:11:47;;;;;;;18.10;10.52;;;3.60;99.90;;;;;;5098193;28;20033;-88
2023/11/12 06:14:14;;;;;;;17.58;10.93;;;4.20;99.90;;;;;;5088962;28;20037;-88
2023/11/12 06:16:41;;;;;;;16.25;9.98;;;4.50;99.90;;;;;;5065570;28;20386;-88
2023/11/12 06:19:08;;;;;;;23.15;10.10;;;4.00;99.90;;;;;;5068421;28;20041;-88
2023/11/12 06:21:35;;;;;;;17.55;10.32;;;4.70;99.90;;;;;;5094005;28;20478;-88
2023/11/12 06:24:04;;;;;;;20.42;11.23;;;3.80;99.90;;;;;;5110812;28;20056;-88
2023/11/12 06:26:30;;;;;;;18.13;11.07;;;3.60;99.90;;;;;;5107370;28;20041;-88
2023/11/12 06:28:57;;;;;;;18.88;11.23;;;3.60;99.90;;;;;;5106836;28;20063;-88
2023/11/12 06:31:24;;;;;;;17.17;10.55;;;4.70;99.90;;;;;;5098565;28;20124;-88
2023/11/12 06:33:51;;;;;;;19.83;11.20;;;3.80;99.90;;;;;;5090023;28;20045;-88
2023/11/12 06:36:19;;;;;;;19.88;11.48;;;3.60;99.90;;;;;;5106803;28;20036;-88
2023/11/12 06:38:46;;;;;;;21.10;11.38;;;4.00;99.90;;;;;;5123506;28;20043;-88
2023/11/12 06:41:13;;;;;;;19.02;11.93;;;4.30;99.90;;;;;;5104997;28;20037;-88
2023/11/12 06:43:39;;;;;;;20.75;11.73;;;4.30;99.90;;;;;;5093605;28;20485;-88
2023/11/12 06:46:07;;;;;;;22.48;12.25;;;3.50;99.90;;;;;;5093244;28;20041;-88
2023/11/12 06:48:34;;;;;;;21.75;11.63;;;4.50;99.90;;;;;;5123260;28;20045;-88
2023/11/12 06:51:01;;;;;;;20.48;11.95;;;3.60;99.90;;;;;;5106192;28;20171;-88
2023/11/12 06:53:27;;;;;;;19.58;11.85;;;3.60;99.90;;;;;;5106388;28;20128;-88
2023/11/12 06:55:54;;;;;;;21.00;12.23;;;3.60;99.90;;;;;;5090021;28;20034;-88
2023/11/12 06:58:21;;;;;;;19.75;11.52;;;4.20;99.90;;;;;;5062627;28;20041;-87
2023/11/12 07:00:47;;;;;;;21.02;10.65;;;3.50;99.90;;;;;;5089312;28;20037;-88
2023/11/12 07:03:14;;;;;;;17.50;10.90;;;4.50;99.90;;;;;;5085969;28;20103;-87
2023/11/12 07:05:42;;;;;;;17.65;10.65;;;3.60;99.90;;;;;;5119821;28;20055;-88
2023/11/12 07:08:08;;;;;;;23.67;11.48;;;3.60;99.90;;;;;;5106230;28;20041;-88
2023/11/12 07:10:38;;;;;;;22.30;12.02;;;3.60;99.90;;;;;;5089664;28;20094;-88
2023/11/12 07:13:05;;;;;;;29.90;13.10;;;4.30;99.90;;;;;;5105914;28;20044;-87
2023/11/12 07:15:32;;;;;;;22.60;12.80;;;3.70;99.90;;;;;;5072719;28;20086;-88
2023/11/12 07:18:01;;;;;;;29.00;12.93;;;4.20;99.90;;;;;;5052401;28;20045;-88
2023/11/12 07:20:32;;;;;;;38.83;13.18;;;3.90;99.90;;;;;;5085741;28;20037;-88
2023/11/12 07:22:59;;;;;;;27.17;12.23;;;3.90;99.90;;;;;;5103780;28;20056;-89
2023/11/12 07:25:29;;;;;;;28.02;12.25;;;3.90;99.90;;;;;;5105736;28;20037;-87
2023/11/12 07:27:56;;;;;;;38.97;11.50;;;4.00;99.90;;;;;;5103674;28;20041;-88
2023/11/12 07:30:26;;;;;;;32.97;11.07;;;4.30;99.90;;;;;;5069541;28;20044;-89
2023/11/12 07:32:53;;;;;;;39.55;11.45;;;4.10;99.90;;;;;;5105454;28;20045;-87
2023/11/12 07:35:20;;;;;;;26.65;10.18;;;4.10;99.90;;;;;;5088662;28;20048;-84
2023/11/12 07:37:46;;;;;;;26.60;11.13;;;4.10;99.90;;;;;;5092285;28;20041;-87
2023/11/12 07:40:15;;;;;;;16.85;10.05;;;4.20;99.90;;;;;;5066939;28;20037;-84
2023/11/12 07:42:42;;;;;;;30.85;11.68;;;4.20;99.90;;;;;;5093853;28;20036;-86
2023/11/12 07:45:10;;;;;;;25.98;10.75;;;5.20;99.90;;;;;;5101487;28;20045;-85
2023/11/12 07:47:38;;;;;;;38.72;11.20;;;4.30;99.90;;;;;;5080487;28;20034;-85
2023/11/12 07:50:05;;;;;;;26.75;11.30;;;4.30;99.90;;;;;;5095982;28;20037;-87
2023/11/12 07:52:32;;;;;;;21.65;10.77;;;4.40;99.90;;;;;;5099152;28;20044;-86
2023/11/12 07:54:59;;;;;;;26.83;10.90;;;4.90;99.90;;;;;;5068155;28;20041;-85
2023/11/12 07:57:26;;;;;;;21.92;11.07;;;4.40;99.90;;;;;;5120245;28;20132;-87
2023/11/12 07:59:52;;;;;;;20.55;10.43;;;4.80;99.90;;;;;;5089622;28;20037;-85
2023/11/12 08:02:21;;;;;;;21.90;12.02;;;4.60;99.90;;;;;;5054377;28;20085;-86
2023/11/12 08:04:48;;;;;;;23.25;11.82;;;5.70;99.90;;;;;;5083784;28;20129;-86
2023/11/12 08:07:15;;;;;;;24.20;12.35;;;4.60;99.90;;;;;;5083563;28;20144;-86
2023/11/12 08:09:48;;;;;;;22.90;12.18;;;4.70;99.90;;;;;;5094269;28;20452;-86
2023/11/12 08:12:16;;;;;;;23.25;11.77;;;5.70;99.90;;;;;;5070085;28;20040;-86
2023/11/12 08:14:42;;;;;;;21.05;11.88;;;5.90;99.90;;;;;;5097337;28;20033;-85
2023/11/12 08:17:09;;;;;;;22.25;11.07;;;5.30;99.90;;;;;;5083218;28;20038;-86
2023/11/12 08:19:36;;;;;;;19.30;11.43;;;4.90;99.90;;;;;;5117210;28;20033;-85
2023/11/12 08:22:03;;;;;;;21.10;11.23;;;4.90;99.90;;;;;;5067170;28;20044;-87
2023/11/12 08:24:31;;;;;;;21.50;10.95;;;6.00;99.90;;;;;;5100257;28;20056;-87
2023/11/12 08:26:59;;;;;;;21.42;11.65;;;5.00;99.90;;;;;;5095053;28;20063;-85
2023/11/12 08:29:25;;;;;;;20.08;10.82;;;5.00;99.90;;;;;;5107352;28;20051;-86
2023/11/12 08:31:52;;;;;;;21.98;11.75;;;5.30;99.90;;;;;;5103372;28;20033;-86
2023/11/12 08:34:21;;;;;;;21.35;11.63;;;5.10;99.90;;;;;;5101776;28;20408;-86
2023/11/12 08:36:49;;;;;;;19.10;11.40;;;5.20;99.90;;;;;;5099059;28;20041;-83
2023/11/12 08:39:16;;;;;;;20.83;11.13;;;6.10;99.90;;;;;;5086095;28;20088;-86
2023/11/12 08:41:46;;;;;;;21.55;11.13;;;5.30;99.90;;;;;;5090828;28;20052;-87
2023/11/12 08:44:13;;;;;;;20.80;11.55;;;5.30;99.90;;;;;;5102465;28;20401;-87
2023/11/12 08:46:41;;;;;;;22.98;11.93;;;5.40;99.90;;;;;;5069542;28;20048;-87
2023/11/12 08:49:08;;;;;;;18.70;10.98;;;5.40;99.90;;;;;;5073826;28;20075;-86
2023/11/12 08:51:35;;;;;;;22.35;11.25;;;5.40;99.90;;;;;;5102691;28;20506;-86
2023/11/12 08:54:02;;;;;;;20.67;11.38;;;6.10;99.90;;;;;;5119439;28;20037;-86
2023/11/12 08:56:29;;;;;;;20.15;11.38;;;5.40;99.90;;;;;;5102354;28;20120;-86
2023/11/12 08:58:56;;;;;;;20.08;11.25;;;5.90;99.90;;;;;;5098738;28;20130;-87
2023/11/12 09:01:24;;;;;;;19.88;11.05;;;6.00;99.90;;;;;;5103851;28;20044;-86
2023/11/12 09:03:52;;;;;;;22.80;12.55;;;6.40;99.90;;;;;;5099983;28;20049;-87
2023/11/12 09:06:19;;;;;;;20.70;11.27;;;6.40;99.90;;;;;;5100959;28;20060;-86
2023/11/12 09:08:47;;;;;;;20.52;11.35;;;6.40;99.90;;;;;;5085699;28;20045;-86
2023/11/12 09:11:14;;;;;;;21.35;11.57;;;6.40;99.90;;;;;;5086100;28;20041;-85
2023/11/12 09:13:42;;;;;;;19.77;11.10;;;6.70;99.90;;;;;;5076878;28;20041;-86
2023/11/12 09:16:10;;;;;;;24.50;11.20;;;5.90;99.90;;;;;;5102644;28;20124;-86
2023/11/12 09:18:38;;;;;;;24.73;11.18;;;6.00;99.90;;;;;;5119604;28;20056;-86
2023/11/12 09:21:05;;;;;;;18.95;9.90;;;6.50;99.90;;;;;;5102501;28;20033;-85
2023/11/12 09:23:31;;;;;;;19.90;11.00;;;6.30;99.90;;;;;;5068767;28;20041;-85
2023/11/12 09:25:59;;;;;;;22.80;11.98;;;6.30;99.90;;;;;;5065672;28;20124;-85
2023/11/12 09:28:26;;;;;;;19.55;11.10;;;6.40;99.90;;;;;;5092854;28;20436;-86
2023/11/12 09:30:52;;;;;;;21.00;10.35;;;7.10;99.90;;;;;;5102409;28;20119;-85
2023/11/12 09:33:19;;;;;;;18.77;10.68;;;6.60;99.90;;;;;;5066919;28;20041;-86
2023/11/12 09:35:46;;;;;;;20.83;10.65;;;6.60;99.90;;;;;;5050079;28;20041;-86
2023/11/12 09:38:13;;;;;;;16.48;9.85;;;6.60;99.90;;;;;;5096745;28;20041;-86
2023/11/12 09:40:40;;;;;;;16.20;8.70;;;6.70;99.90;;;;;;5069062;28;20075;-85
2023/11/12 09:43:08;;;;;;;17.77;9.40;;;6.70;99.90;;;;;;5081570;28;20409;-85
2023/11/12 09:45:36;;;;;;;16.60;9.18;;;6.30;99.90;;;;;;5067795;28;20506;-86
2023/11/12 09:48:25;;;;;;;22.60;10.57;;;7.00;99.90;;;;;;5078471;28;20045;-86
2023/11/12 09:50:53;;;;;;;20.25;11.05;;;7.20;99.90;;;;;;5069985;28;20026;-85
2023/11/12 09:53:19;;;;;;;19.13;11.35;;;6.90;99.90;;;;;;5068392;28;20098;-86
2023/11/12 09:55:46;;;;;;;18.95;10.65;;;7.00;99.90;;;;;;5095041;28;20033;-85
2023/11/12 09:58:13;;;;;;;17.88;11.30;;;7.20;99.90;;;;;;5071720;28;20060;-85
2023/11/12 10:00:40;;;;;;;16.92;10.50;;;7.40;99.90;;;;;;5096002;28;20406;-85
2023/11/12 10:03:07;;;;;;;18.25;10.95;;;8.30;99.90;;;;;;5119035;28;20041;-85
2023/11/12 10:05:35;;;;;;;17.40;10.43;;;7.40;99.90;;;;;;5072326;28;20528;-85
2023/11/12 10:08:04;;;;;;;16.58;9.35;;;8.40;99.90;;;;;;5105348;28;20037;-85
2023/11/12 10:10:31;;;;;;;16.90;10.10;;;7.60;99.90;;;;;;5061067;28;20052;-87
2023/11/12 10:12:58;;;;;;;16.80;9.20;;;7.50;99.90;;;;;;5100482;28;20119;-86
2023/11/12 10:15:29;;;;;;;16.15;9.27;;;7.60;99.90;;;;;;5072024;28;20112;-86
2023/11/12 10:17:56;;;;;;;17.65;9.40;;;7.60;99.90;;;;;;5067289;28;20041;-85
2023/11/12 10:20:25;;;;;;;15.90;9.35;;;8.30;99.90;;;;;;5064322;28;20080;-85
2023/11/12 10:22:53;;;;;;;16.67;9.07;;;7.50;99.90;;;;;;5076141;28;20037;-85
2023/11/12 10:25:40;;;;;;;13.40;8.88;;;7.50;99.90;;;;;;5103278;28;20037;-84
2023/11/12 10:28:11;;;;;;;14.45;8.75;;;8.40;99.90;;;;;;5058141;28;20033;-84
2023/11/12 10:30:39;;;;;;;17.05;9.32;;;7.50;99.90;;;;;;5071273;28;20087;-85
2023/11/12 10:33:20;;;;;;;15.43;9.32;;;8.00;99.90;;;;;;5065531;28;20041;-84
2023/11/12 10:35:47;;;;;;;14.20;8.43;;;7.50;99.90;;;;;;5121818;28;20397;-85
2023/11/12 10:38:18;;;;;;;13.73;8.57;;;7.80;99.90;;;;;;5058550;28;20508;-84
2023/11/12 10:40:57;;;;;;;15.27;8.98;;;7.60;99.90;;;;;;5067716;28;20046;-85
2023/11/12 10:43:25;;;;;;;15.60;9.38;;;7.60;99.90;;;;;;5057773;28;20041;-84
2023/11/12 10:45:58;;;;;;;16.17;10.02;;;8.30;99.90;;;;;;5063545;28;20072;-85
2023/11/12 10:48:39;;;;;;;17.23;9.75;;;7.60;99.90;;;;;;5098278;28;20497;-84
2023/11/12 10:51:10;;;;;;;16.05;9.73;;;7.40;99.90;;;;;;5096887;28;20120;-85
2023/11/12 10:53:38;;;;;;;18.13;12.20;;;7.40;99.90;;;;;;5091338;28;20100;-85
2023/11/12 10:56:09;;;;;;;19.67;12.18;;;8.20;99.90;;;;;;5097956;28;20083;-85
2023/11/12 10:58:40;;;;;;;20.90;10.25;;;7.40;99.90;;;;;;5088182;28;20543;-85
2023/11/12 11:01:08;;;;;;;19.25;12.90;;;7.90;99.90;;;;;;5087791;28;20041;-83
2023/11/12 11:03:34;;;;;;;16.80;10.10;;;7.50;99.90;;;;;;5091244;28;20124;-85
2023/11/12 11:06:02;;;;;;;19.13;11.93;;;8.40;99.90;;;;;;5096763;28;20137;-85
2023/11/12 11:08:34;;;;;;;15.10;9.93;;;8.20;99.90;;;;;;5099313;28;20067;-85
2023/11/12 11:11:04;;;;;;;15.57;10.00;;;8.00;99.90;;;;;;5062601;28;20082;-85
2023/11/12 11:13:32;;;;;;;17.90;10.57;;;8.40;99.90;;;;;;5101853;28;20082;-88
2023/11/12 11:16:00;;;;;;;15.45;9.63;;;7.80;99.90;;;;;;5105177;28;20041;-88
2023/11/12 11:18:37;;;;;;;17.60;9.98;;;8.30;99.90;;;;;;5064553;28;20095;-87
2023/11/12 11:21:10;;;;;;;15.05;9.38;;;8.30;99.90;;;;;;5115675;28;20059;-89
2023/11/12 11:23:45;;;;;;;15.27;9.55;;;8.50;99.90;;;;;;5110313;28;20091;-88
2023/11/12 11:26:32;;;;;;;19.05;9.95;;;7.60;99.90;;;;;;5101986;28;20043;-88
2023/11/12 11:29:04;;;;;;;15.00;9.85;;;7.60;99.90;;;;;;5082054;28;20042;-89
2023/11/12 11:31:34;;;;;;;15.85;9.23;;;7.50;99.90;;;;;;5113167;28;20078;-88
2023/11/12 11:34:03;;;;;;;15.63;9.38;;;7.50;99.90;;;;;;5063998;28;20116;-87
2023/11/12 11:36:30;;;;;;;15.55;9.32;;;7.70;99.90;;;;;;5071011;28;20573;-90
2023/11/12 11:39:15;;;;;;;16.10;10.43;;;7.40;99.90;;;;;;5072597;28;20075;-87
2023/11/12 11:41:51;;;;;;;14.35;9.45;;;7.40;99.90;;;;;;5076001;28;20131;-88
2023/11/12 11:44:42;;;;;;;;;;;7.30;99.90;;;;;;5123022;28;20041;-87
2023/11/12 11:47:24;;;;;;;14.50;9.00;;;7.30;99.90;;;;;;5095995;28;19967;-88
2023/11/12 11:49:57;;;;;;;16.05;9.32;;;7.90;99.90;;;;;;5101942;28;20727;-88
2023/11/12 11:52:26;;;;;;;16.73;9.75;;;7.30;99.90;;;;;;5115494;28;20485;-89
2023/11/12 11:55:02;;;;;;;14.80;9.32;;;7.30;99.90;;;;;;5078250;28;20033;-87
2023/11/12 11:57:29;;;;;;;15.32;9.32;;;7.30;99.90;;;;;;5088239;28;20135;-87
2023/11/12 11:59:58;;;;;;;15.60;8.85;;;7.30;99.90;;;;;;5078818;28;20080;-88
2023/11/12 12:02:25;;;;;;;15.07;9.20;;;7.40;99.90;;;;;;5052224;28;20041;-88
2023/11/12 12:04:57;;;;;;;14.25;8.73;;;7.50;99.90;;;;;;5096623;28;20057;-88
2023/11/12 12:07:30;;;;;;;16.67;9.30;;;7.40;99.90;;;;;;5065913;28;20037;-88
2023/11/12 12:09:59;;;;;;;13.75;8.68;;;7.30;99.90;;;;;;5080975;28;20041;-87
2023/11/12 12:12:26;;;;;;;14.75;8.00;;;8.20;99.90;;;;;;5058503;28;20043;-88
2023/11/12 12:14:54;;;;;;;15.43;9.02;;;8.20;99.90;;;;;;5121000;28;20049;-89
2023/11/12 12:17:21;;;;;;;19.13;11.15;;;7.40;99.90;;;;;;5051189;28;20477;-89
2023/11/12 12:19:55;;;;;;;19.60;11.70;;;7.40;99.90;;;;;;5064285;28;20044;-87
2023/11/12 12:22:23;;;;;;;16.50;10.88;;;7.40;99.90;;;;;;5098396;28;20115;-87
2023/11/12 12:24:55;;;;;;;18.08;10.25;;;8.20;99.90;;;;;;5071675;28;20045;-88
2023/11/12 12:27:24;;;;;;;18.05;10.38;;;7.50;99.90;;;;;;5104198;28;20044;-87
2023/11/12 12:29:51;;;;;;;16.67;10.48;;;7.50;99.90;;;;;;5088691;28;20040;-87
2023/11/12 12:32:19;;;;;;;13.82;9.05;;;7.90;99.90;;;;;;5073098;28;20033;-88
2023/11/12 12:34:57;;;;;;;20.65;11.88;;;7.50;99.90;;;;;;5084903;28;20041;-86
2023/11/12 12:37:28;;;;;;;13.27;8.60;;;7.80;99.90;;;;;;5088333;28;20152;-90
2023/11/12 12:40:03;;;;;;;13.95;8.43;;;7.60;99.90;;;;;;5071038;28;20580;-87
2023/11/12 12:42:30;;;;;;;;;;;7.60;99.90;;;;;;5109980;28;20397;-87
2023/11/12 12:44:57;;;;;;;12.50;8.10;;;7.70;99.90;;;;;;5103050;28;19917;-87